createdAt,value
2018-08-23T00:01:31.838Z,46.48
2018-08-23T00:04:05.116Z,46.83
2018-08-23T00:06:34.367Z,47.22
2018-08-23T00:09:04.682Z,47.48
2018-08-23T00:11:35.506Z,47.64
2018-08-23T00:14:04.599Z,47.43
2018-08-23T00:16:42.076Z,47.96
2018-08-23T00:19:11.226Z,48.04
2018-08-23T00:21:41.983Z,48.17
2018-08-23T00:24:13.957Z,48.27
2018-08-23T00:26:56.787Z,48.19
2018-08-23T00:29:26.912Z,48.81
2018-08-23T00:31:58.676Z,48.61
2018-08-23T00:34:30.224Z,48.59
2018-08-23T00:36:59.596Z,48.87
2018-08-23T00:39:29.341Z,48.85
2018-08-23T00:42:05.511Z,49.19
2018-08-23T00:44:56.308Z,49.25
2018-08-23T00:47:27.531Z,48.98
2018-08-23T00:49:56.706Z,48.80
2018-08-23T00:52:44.604Z,48.71
2018-08-23T00:55:23.590Z,48.75
2018-08-23T00:57:52.772Z,48.83
2018-08-23T01:00:23.173Z,48.96
2018-08-23T01:02:55.444Z,48.59
2018-08-23T01:05:29.813Z,48.87
2018-08-23T01:07:58.942Z,48.80
2018-08-23T01:10:28.069Z,48.91
2018-08-23T01:12:58.860Z,49.10
2018-08-23T01:15:28.465Z,49.48
2018-08-23T01:18:14.781Z,49.71
2018-08-23T01:20:44.573Z,50.63
2018-08-23T01:23:13.751Z,50.82
2018-08-23T01:25:44.044Z,51.29
2018-08-23T01:28:13.193Z,51.28
2018-08-23T01:30:42.723Z,52.13
2018-08-23T01:33:14.941Z,52.80
2018-08-23T01:35:45.310Z,52.98
2018-08-23T01:38:14.958Z,51.97
2018-08-23T01:40:44.222Z,51.43
2018-08-23T01:43:13.390Z,51.65
2018-08-23T01:45:42.576Z,51.67
2018-08-23T01:48:12.131Z,51.74
2018-08-23T01:50:41.258Z,51.54
2018-08-23T01:53:10.490Z,51.53
2018-08-23T01:55:39.740Z,51.21
2018-08-23T01:58:08.869Z,51.15
2018-08-23T02:00:38.024Z,51.82
2018-08-23T02:03:07.154Z,51.67
2018-08-23T02:05:37.920Z,51.82
2018-08-23T02:08:07.720Z,51.59
2018-08-23T02:10:36.818Z,51.72
2018-08-23T02:13:10.673Z,51.56
2018-08-23T02:15:44.851Z,51.93
2018-08-23T02:18:14.088Z,52.15
2018-08-23T02:20:43.254Z,52.25
2018-08-23T02:23:12.439Z,52.29
2018-08-23T02:25:41.579Z,51.98
2018-08-23T02:28:13.586Z,52.06
2018-08-23T02:30:55.149Z,52.07
2018-08-23T02:33:24.724Z,52.17
2018-08-23T02:36:22.366Z,51.98
2018-08-23T02:39:00.132Z,51.74
2018-08-23T02:41:29.494Z,50.30
2018-08-23T02:43:58.602Z,50.00
2018-08-23T02:46:27.741Z,49.85
2018-08-23T02:48:56.909Z,50.51
2018-08-23T02:51:40.512Z,50.48
2018-08-23T02:54:14.094Z,50.73
2018-08-23T02:56:51.228Z,50.29
2018-08-23T02:59:20.376Z,50.03
2018-08-23T03:01:50.416Z,50.58
2018-08-23T03:04:28.366Z,50.57
2018-08-23T03:07:00.068Z,50.14
2018-08-23T03:09:30.993Z,50.51
2018-08-23T03:12:01.338Z,50.49
2018-08-23T03:14:31.039Z,50.41
2018-08-23T03:17:27.301Z,50.70
2018-08-23T03:20:04.917Z,50.70
2018-08-23T03:22:34.783Z,50.63
2018-08-23T03:25:05.347Z,50.70
2018-08-23T03:27:34.616Z,51.15
2018-08-23T03:30:04.771Z,51.67
2018-08-23T03:32:33.952Z,51.56
2018-08-23T03:35:03.184Z,52.17
2018-08-23T03:37:32.352Z,52.04
2018-08-23T03:40:01.565Z,52.06
2018-08-23T03:42:30.692Z,52.04
2018-08-23T03:45:00.582Z,51.59
2018-08-23T03:47:38.316Z,52.15
2018-08-23T03:50:08.865Z,51.99
2018-08-23T03:52:41.177Z,52.21
2018-08-23T03:55:11.870Z,52.15
2018-08-23T03:57:46.272Z,52.11
2018-08-23T04:00:15.459Z,52.38
2018-08-23T04:02:44.537Z,51.83
2018-08-23T04:05:18.793Z,52.15
2018-08-23T04:07:47.942Z,52.69
2018-08-23T04:10:17.175Z,52.38
2018-08-23T04:12:46.308Z,52.23
2018-08-23T04:15:26.420Z,52.17
2018-08-23T04:17:55.567Z,52.02
2018-08-23T04:20:24.693Z,51.93
2018-08-23T04:22:53.828Z,51.97
2018-08-23T04:25:23.028Z,51.65
2018-08-23T04:27:52.159Z,51.86
2018-08-23T04:30:21.297Z,51.60
2018-08-23T04:32:50.499Z,51.46
2018-08-23T04:35:23.707Z,51.56
2018-08-23T04:37:52.972Z,51.58
2018-08-23T04:40:22.119Z,51.41
2018-08-23T04:42:51.259Z,51.56
2018-08-23T04:45:25.433Z,51.64
2018-08-23T04:48:02.964Z,51.57
2018-08-23T04:50:32.120Z,52.02
2018-08-23T04:53:01.246Z,52.23
2018-08-23T04:55:30.413Z,52.02
2018-08-23T04:58:00.235Z,51.93
2018-08-23T05:00:30.082Z,51.25
2018-08-23T05:02:59.563Z,51.11
2018-08-23T05:05:28.840Z,50.80
2018-08-23T05:07:58.001Z,51.02
2018-08-23T05:10:27.203Z,51.05
2018-08-23T05:12:56.342Z,51.52
2018-08-23T05:15:25.583Z,51.78
2018-08-23T05:17:54.750Z,51.52
2018-08-23T05:20:23.927Z,51.33
2018-08-23T05:23:02.228Z,51.37
2018-08-23T05:25:31.368Z,50.12
2018-08-23T05:28:17.658Z,49.20
2018-08-23T05:30:47.536Z,48.46
2018-08-23T05:33:21.021Z,47.59
2018-08-23T05:35:50.297Z,47.15
2018-08-23T05:38:20.226Z,46.70
2018-08-23T05:40:56.745Z,46.32
2018-08-23T05:43:25.917Z,46.39
2018-08-23T05:45:56.847Z,45.97
2018-08-23T05:48:32.288Z,45.37
2018-08-23T05:51:10.433Z,45.09
2018-08-23T05:53:45.571Z,45.17
2018-08-23T05:56:14.719Z,44.77
2018-08-23T05:58:43.900Z,44.05
2018-08-23T06:01:13.038Z,44.09
2018-08-23T06:03:42.216Z,43.13
2018-08-23T06:06:11.428Z,43.18
2018-08-23T06:08:44.372Z,42.94
2018-08-23T06:11:13.582Z,42.87
2018-08-23T06:13:42.779Z,42.88
2018-08-23T06:16:11.970Z,42.47
2018-08-23T06:18:41.117Z,41.96
2018-08-23T06:21:10.304Z,41.87
2018-08-23T06:23:59.564Z,41.35
2018-08-23T06:26:38.873Z,41.29
2018-08-23T06:29:08.773Z,41.17
2018-08-23T06:31:47.637Z,40.47
2018-08-23T06:34:16.819Z,39.80
2018-08-23T06:36:46.857Z,39.54
2018-08-23T06:39:16.015Z,39.83
2018-08-23T06:41:45.155Z,39.58
2018-08-23T06:44:14.345Z,39.82
2018-08-23T06:46:43.485Z,38.98
2018-08-23T06:49:12.677Z,38.76
2018-08-23T06:51:41.831Z,38.55
2018-08-23T06:54:10.997Z,37.83
2018-08-23T06:56:40.128Z,37.87
2018-08-23T06:59:10.229Z,37.93
2018-08-23T07:01:44.778Z,37.63
2018-08-23T07:04:15.272Z,37.23
2018-08-23T07:06:44.449Z,37.08
2018-08-23T07:09:15.444Z,36.62
2018-08-23T07:11:44.762Z,36.99
2018-08-23T07:14:15.991Z,36.39
2018-08-23T07:16:46.410Z,36.19
2018-08-23T07:19:30.232Z,36.40
2018-08-23T07:22:01.857Z,36.02
2018-08-23T07:24:45.737Z,35.50
2018-08-23T07:27:16.405Z,35.19
2018-08-23T07:29:48.375Z,35.41
2018-08-23T07:32:18.559Z,35.15
2018-08-23T07:34:54.275Z,34.78
2018-08-23T07:37:23.398Z,35.07
2018-08-23T07:39:58.072Z,34.54
2018-08-23T07:42:30.607Z,34.89
2018-08-23T07:45:00.301Z,34.78
2018-08-23T07:47:30.013Z,34.82
2018-08-23T07:50:00.255Z,34.45
2018-08-23T07:52:31.376Z,34.12
2018-08-23T07:55:02.687Z,33.84
2018-08-23T07:57:33.083Z,33.33
2018-08-23T08:00:04.027Z,33.62
2018-08-23T08:02:33.152Z,33.42
2018-08-23T08:05:02.358Z,32.92
2018-08-23T08:07:32.514Z,32.68
2018-08-23T08:10:02.780Z,32.71
2018-08-23T08:12:38.795Z,32.28
2018-08-23T08:15:10.932Z,32.50
2018-08-23T08:17:40.063Z,31.92
2018-08-23T08:20:10.847Z,31.21
2018-08-23T08:22:39.979Z,31.02
2018-08-23T08:25:15.609Z,30.72
2018-08-23T08:27:44.748Z,31.21
2018-08-23T08:30:15.224Z,31.03
2018-08-23T08:32:44.750Z,30.69
2018-08-23T08:35:15.459Z,31.08
2018-08-23T08:37:46.283Z,30.75
2018-08-23T08:40:29.937Z,30.74
2018-08-23T08:42:59.125Z,30.85
2018-08-23T08:45:28.503Z,31.05
2018-08-23T08:48:14.317Z,30.67
2018-08-23T08:50:48.852Z,30.34
2018-08-23T08:53:18.013Z,29.79
2018-08-23T08:55:47.194Z,29.86
2018-08-23T08:58:16.339Z,29.00
2018-08-23T09:00:51.981Z,29.37
2018-08-23T09:03:22.700Z,28.71
2018-08-23T09:05:51.869Z,28.34
2018-08-23T09:08:21.008Z,28.76
2018-08-23T09:10:50.206Z,28.83
2018-08-23T09:13:20.259Z,28.71
2018-08-23T09:15:50.397Z,29.08
2018-08-23T09:18:24.756Z,28.67
2018-08-23T09:20:55.741Z,26.85
2018-08-23T09:23:25.420Z,25.22
2018-08-23T09:25:58.417Z,24.69
2018-08-23T09:28:31.310Z,23.45
2018-08-23T09:31:05.050Z,22.57
2018-08-23T09:33:39.885Z,21.50
2018-08-23T09:36:09.021Z,21.87
2018-08-23T09:38:44.262Z,22.16
2018-08-23T09:41:13.405Z,21.30
2018-08-23T09:43:45.420Z,21.20
2018-08-23T09:46:17.885Z,20.78
2018-08-23T09:48:50.981Z,20.80
2018-08-23T09:51:25.442Z,21.24
2018-08-23T09:54:02.139Z,21.51
2018-08-23T09:56:36.433Z,21.18
2018-08-23T09:59:09.938Z,23.76
2018-08-23T10:01:48.364Z,23.39
2018-08-23T10:04:30.840Z,22.59
2018-08-23T10:07:12.770Z,23.59
2018-08-23T10:09:48.880Z,23.26
2018-08-23T10:12:27.642Z,22.46
2018-08-23T10:15:07.011Z,23.08
2018-08-23T10:17:46.147Z,23.81
2018-08-23T10:20:20.644Z,23.08
2018-08-23T10:23:00.711Z,23.41
2018-08-23T10:25:44.861Z,22.83
2018-08-23T10:28:15.166Z,24.59
2018-08-23T10:30:44.572Z,23.77
2018-08-23T10:33:13.746Z,26.76
2018-08-23T10:35:47.607Z,25.32
2018-08-23T10:38:18.603Z,24.29
2018-08-23T10:40:48.836Z,24.21
2018-08-23T10:43:22.035Z,23.81
2018-08-23T10:45:51.147Z,22.39
2018-08-23T10:48:20.540Z,23.49
2018-08-23T10:50:50.458Z,22.62
2018-08-23T10:53:19.994Z,22.10
2018-08-23T10:55:49.115Z,23.06
2018-08-23T10:58:18.228Z,24.56
2018-08-23T11:00:47.347Z,25.08
2018-08-23T11:03:16.481Z,23.37
2018-08-23T11:05:45.940Z,22.33
2018-08-23T11:08:21.738Z,23.14
2018-08-23T11:11:53.912Z,23.19
2018-08-23T11:14:28.368Z,23.78
2018-08-23T11:17:02.789Z,23.92
2018-08-23T11:19:37.163Z,23.35
2018-08-23T11:22:06.292Z,24.64
2018-08-23T11:24:35.444Z,25.11
2018-08-23T11:27:04.615Z,26.48
2018-08-23T11:29:33.820Z,27.44
2018-08-23T11:32:03.066Z,28.27
2018-08-23T11:34:32.221Z,28.00
2018-08-23T11:37:01.349Z,28.40
2018-08-23T11:39:30.540Z,28.40
2018-08-23T11:41:59.712Z,27.78
2018-08-23T11:44:28.913Z,26.79
2018-08-23T11:46:58.116Z,27.15
2018-08-23T11:49:27.326Z,27.59
2018-08-23T11:51:56.553Z,27.87
2018-08-23T11:54:25.826Z,27.50
2018-08-23T11:56:55.012Z,28.10
2018-08-23T11:59:24.194Z,27.59
2018-08-23T12:01:53.324Z,28.29
2018-08-23T12:04:22.457Z,28.19
2018-08-23T12:06:55.749Z,27.61
2018-08-23T12:09:30.254Z,27.87
2018-08-23T12:11:59.768Z,27.76
2018-08-23T12:14:28.974Z,27.81
2018-08-23T12:16:58.184Z,28.38
2018-08-23T12:19:27.340Z,28.02
2018-08-23T12:21:56.464Z,27.43
2018-08-23T12:24:25.600Z,26.64
2018-08-23T12:26:54.805Z,26.68
2018-08-23T12:29:23.920Z,26.31
2018-08-23T12:31:55.276Z,25.79
2018-08-23T12:34:35.744Z,25.44
2018-08-23T12:37:10.353Z,25.67
2018-08-23T12:39:45.040Z,26.27
2018-08-23T12:42:19.598Z,26.63
2018-08-23T12:44:52.701Z,25.89
2018-08-23T12:47:21.990Z,26.18
2018-08-23T12:49:51.275Z,26.76
2018-08-23T12:52:20.453Z,27.04
2018-08-23T12:54:49.589Z,26.20
2018-08-23T12:57:18.765Z,26.72
2018-08-23T12:59:47.863Z,27.24
2018-08-23T13:02:17.146Z,27.28
2018-08-23T13:04:46.257Z,26.97
2018-08-23T13:07:15.456Z,27.12
2018-08-23T13:09:44.909Z,27.18
2018-08-23T13:12:14.203Z,26.24
2018-08-23T13:14:43.381Z,26.75
2018-08-23T13:17:12.835Z,26.37
2018-08-23T13:19:42.061Z,26.71
2018-08-23T13:22:11.169Z,27.38
2018-08-23T13:24:45.647Z,27.56
2018-08-23T13:27:14.798Z,26.98
2018-08-23T13:29:44.020Z,27.23
2018-08-23T13:32:13.246Z,26.65
2018-08-23T13:34:42.341Z,25.98
2018-08-23T13:37:11.488Z,26.20
2018-08-23T13:39:40.642Z,26.71
2018-08-23T13:42:09.760Z,26.72
2018-08-23T13:44:38.858Z,26.50
2018-08-23T13:47:08.015Z,26.46
2018-08-23T13:49:37.189Z,27.24
2018-08-23T13:52:06.358Z,27.53
2018-08-23T13:54:35.627Z,27.54
2018-08-23T13:57:05.909Z,26.66
2018-08-23T13:59:35.228Z,27.18
2018-08-23T14:02:04.491Z,27.30
2018-08-23T14:04:33.650Z,27.00
2018-08-23T14:07:02.823Z,27.65
2018-08-23T14:09:32.013Z,26.84
2018-08-23T14:12:01.222Z,26.33
2018-08-23T14:14:31.061Z,27.29
2018-08-23T14:17:00.538Z,26.69
2018-08-23T14:19:29.795Z,28.23
2018-08-23T14:21:58.967Z,28.21
2018-08-23T14:24:28.245Z,27.25
2018-08-23T14:26:57.385Z,27.03
2018-08-23T14:29:26.501Z,27.87
2018-08-23T14:31:55.719Z,27.39
2018-08-23T14:34:24.983Z,28.09
2018-08-23T14:36:54.166Z,28.07
2018-08-23T14:39:23.331Z,27.59
2018-08-23T14:41:52.483Z,28.13
2018-08-23T14:44:21.628Z,28.21
2018-08-23T14:46:56.262Z,28.73
2018-08-23T14:49:30.702Z,29.77
2018-08-23T14:51:59.892Z,28.98
2018-08-23T14:54:34.291Z,29.09
2018-08-23T14:57:08.672Z,29.11
2018-08-23T14:59:37.869Z,29.06
2018-08-23T15:02:07.661Z,28.98
2018-08-23T15:04:36.985Z,29.04
2018-08-23T15:07:06.525Z,29.55
2018-08-23T15:09:35.766Z,29.69
2018-08-23T15:12:04.870Z,29.15
2018-08-23T15:14:34.059Z,28.67
2018-08-23T15:17:03.223Z,29.81
2018-08-23T15:19:32.385Z,29.97
2018-08-23T15:22:01.654Z,30.14
2018-08-23T15:24:30.792Z,30.78
2018-08-23T15:27:00.090Z,30.42
2018-08-23T15:29:29.189Z,31.02
2018-08-23T15:31:58.366Z,29.87
2018-08-23T15:34:27.519Z,30.30
2018-08-23T15:36:56.645Z,30.50
2018-08-23T15:39:25.834Z,30.19
2018-08-23T15:41:54.959Z,29.96
2018-08-23T15:44:24.154Z,30.69
2018-08-23T15:46:53.291Z,31.31
2018-08-23T15:49:22.466Z,31.14
2018-08-23T15:51:51.628Z,31.11
2018-08-23T15:54:20.833Z,30.82
2018-08-23T15:56:50.028Z,30.98
2018-08-23T15:59:19.245Z,31.58
2018-08-23T16:01:48.426Z,30.88
2018-08-23T16:04:17.586Z,31.31
2018-08-23T16:06:46.764Z,31.44
2018-08-23T16:09:15.916Z,31.44
2018-08-23T16:11:45.048Z,30.93
2018-08-23T16:14:14.191Z,30.50
2018-08-23T16:16:48.522Z,30.66
2018-08-23T16:19:22.906Z,30.62
2018-08-23T16:21:56.034Z,30.47
2018-08-23T16:24:25.981Z,30.61
2018-08-23T16:27:00.512Z,31.57
2018-08-23T16:29:29.901Z,30.79
2018-08-23T16:31:58.996Z,31.13
2018-08-23T16:34:28.360Z,31.74
2018-08-23T16:36:57.498Z,31.51
2018-08-23T16:39:26.620Z,31.59
2018-08-23T16:41:55.780Z,31.72
2018-08-23T16:44:24.903Z,31.99
2018-08-23T16:46:54.023Z,31.45
2018-08-23T16:49:23.141Z,31.21
2018-08-23T16:51:52.310Z,31.71
2018-08-23T16:54:21.414Z,31.33
2018-08-23T16:56:50.540Z,31.58
2018-08-23T16:59:19.643Z,32.56
2018-08-23T17:01:49.618Z,33.88
2018-08-23T17:04:18.761Z,34.14
2018-08-23T17:06:47.891Z,34.29
2018-08-23T17:09:17.054Z,35.46
2018-08-23T17:11:46.145Z,36.14
2018-08-23T17:14:15.911Z,36.82
2018-08-23T17:16:50.508Z,37.02
2018-08-23T17:19:19.677Z,38.70
2018-08-23T17:21:48.755Z,39.48
2018-08-23T17:24:17.957Z,40.09
2018-08-23T17:26:47.126Z,40.53
2018-08-23T17:29:16.301Z,41.99
2018-08-23T17:31:45.411Z,41.53
2018-08-23T17:34:14.567Z,42.07
2018-08-23T17:36:43.703Z,43.17
2018-08-23T17:39:12.844Z,43.45
2018-08-23T17:41:41.985Z,42.49
2018-08-23T17:44:11.121Z,41.70
2018-08-23T17:46:40.281Z,41.02
2018-08-23T17:49:09.420Z,41.37
2018-08-23T17:51:38.753Z,41.55
2018-08-23T17:54:07.900Z,42.13
2018-08-23T17:56:37.104Z,42.11
2018-08-23T17:59:06.229Z,42.59
2018-08-23T18:01:35.383Z,42.44
2018-08-23T18:04:04.496Z,42.19
2018-08-23T18:06:33.713Z,42.24
2018-08-23T18:09:02.876Z,42.34
2018-08-23T18:11:32.076Z,42.40
2018-08-23T18:14:01.244Z,42.38
2018-08-23T18:16:35.529Z,42.57
2018-08-23T18:19:04.675Z,43.05
2018-08-23T18:21:33.778Z,43.16
2018-08-23T18:24:02.883Z,43.35
2018-08-23T18:26:31.981Z,44.04
2018-08-23T18:29:01.122Z,44.02
2018-08-23T18:31:37.035Z,44.94
2018-08-23T18:34:06.238Z,46.13
2018-08-23T18:36:35.358Z,47.65
2018-08-23T18:39:06.650Z,47.26
2018-08-23T18:41:35.842Z,47.54
2018-08-23T18:44:04.968Z,47.00
2018-08-23T18:46:34.159Z,46.33
2018-08-23T18:49:03.544Z,46.47
2018-08-23T18:51:32.959Z,46.66
2018-08-23T18:54:02.163Z,46.34
2018-08-23T18:56:31.400Z,46.63
2018-08-23T18:59:00.608Z,47.41
2018-08-23T19:01:29.786Z,47.50
2018-08-23T19:03:59.031Z,47.82
2018-08-23T19:06:33.543Z,47.70
2018-08-23T19:09:03.301Z,49.01
2018-08-23T19:11:32.451Z,50.94
2018-08-23T19:14:01.552Z,51.00
2018-08-23T19:16:35.887Z,52.90
2018-08-23T19:19:05.234Z,53.46
2018-08-23T19:21:34.270Z,53.72
2018-08-23T19:24:03.360Z,54.15
2018-08-23T19:26:32.521Z,54.32
2018-08-23T19:29:01.680Z,54.57
2018-08-23T19:31:30.999Z,54.58
2018-08-23T19:34:00.004Z,54.73
2018-08-23T19:36:29.192Z,54.11
2018-08-23T19:38:58.322Z,53.96
2018-08-23T19:41:27.434Z,54.20
2018-08-23T19:43:56.671Z,53.70
2018-08-23T19:46:31.259Z,53.79
2018-08-23T19:49:05.808Z,53.43
2018-08-23T19:51:34.921Z,55.03
2018-08-23T19:54:04.107Z,54.70
2018-08-23T19:56:33.299Z,55.47
2018-08-23T19:59:02.473Z,54.99
2018-08-23T20:01:31.841Z,55.16
2018-08-23T20:04:00.957Z,55.05
2018-08-23T20:06:30.203Z,54.65
2018-08-23T20:08:59.316Z,54.71
2018-08-23T20:11:28.453Z,55.42
2018-08-23T20:13:57.555Z,56.72
2018-08-23T20:16:26.707Z,57.34
2018-08-23T20:18:55.846Z,58.01
2018-08-23T20:21:24.998Z,58.19
2018-08-23T20:23:54.129Z,58.27
2018-08-23T20:26:23.331Z,58.44
2018-08-23T20:28:52.484Z,58.08
2018-08-23T20:31:21.574Z,58.24
2018-08-23T20:33:50.719Z,57.87
2018-08-23T20:36:19.803Z,58.02
2018-08-23T20:38:48.969Z,57.95
2018-08-23T20:41:18.140Z,57.95
2018-08-23T20:43:47.358Z,57.75
2018-08-23T20:46:16.543Z,57.42
2018-08-23T20:48:45.735Z,57.54
2018-08-23T20:51:14.844Z,57.79
2018-08-23T20:53:43.989Z,57.80
2018-08-23T20:56:13.107Z,57.73
2018-08-23T20:58:42.268Z,57.54
2018-08-23T21:01:11.396Z,57.88
2018-08-23T21:03:40.536Z,58.20
2018-08-23T21:06:09.695Z,58.61
2018-08-23T21:08:38.870Z,58.98
2018-08-23T21:11:08.042Z,59.50
2018-08-23T21:13:37.262Z,59.56
2018-08-23T21:16:06.399Z,59.82
2018-08-23T21:18:35.545Z,59.86
2018-08-23T21:21:04.692Z,59.66
2018-08-23T21:23:33.891Z,59.57
2018-08-23T21:26:03.090Z,59.58
2018-08-23T21:28:32.254Z,59.32
2018-08-23T21:31:01.518Z,59.40
2018-08-23T21:33:30.638Z,59.17
2018-08-23T21:36:00.079Z,59.50
2018-08-23T21:38:29.280Z,59.11
2018-08-23T21:40:58.436Z,59.19
2018-08-23T21:43:27.531Z,59.02
2018-08-23T21:45:56.651Z,59.24
2018-08-23T21:48:25.852Z,59.59
2018-08-23T21:50:55.021Z,59.97
2018-08-23T21:53:24.131Z,59.77
2018-08-23T21:55:53.325Z,59.47
2018-08-23T21:58:22.557Z,59.77
2018-08-23T22:00:54.712Z,60.08
2018-08-23T22:03:24.272Z,60.22
2018-08-23T22:05:53.473Z,59.84
2018-08-23T22:08:22.657Z,60.24
2018-08-23T22:10:51.790Z,60.11
2018-08-23T22:13:20.925Z,59.93
2018-08-23T22:15:50.373Z,60.08
2018-08-23T22:18:20.049Z,60.28
2018-08-23T22:20:49.223Z,60.02
2018-08-23T22:23:18.378Z,60.33
2018-08-23T22:25:47.544Z,60.12
2018-08-23T22:28:16.746Z,59.73
2018-08-23T22:30:45.917Z,60.29
2018-08-23T22:33:15.110Z,60.25
2018-08-23T22:35:44.306Z,60.26
2018-08-23T22:38:13.531Z,60.57
2018-08-23T22:40:42.745Z,60.75
2018-08-23T22:43:12.084Z,60.37
2018-08-23T22:45:41.242Z,61.13
2018-08-23T22:48:10.510Z,60.57
2018-08-23T22:50:39.683Z,60.77
2018-08-23T22:53:08.849Z,60.64
2018-08-23T22:55:38.066Z,60.52
2018-08-23T22:58:07.258Z,60.41
2018-08-23T23:00:40.751Z,60.82
2018-08-23T23:03:15.195Z,60.80
2018-08-23T23:05:44.866Z,60.38
2018-08-23T23:08:14.097Z,60.82
2018-08-23T23:10:43.335Z,60.88
2018-08-23T23:13:12.568Z,60.96
2018-08-23T23:15:41.749Z,61.26
2018-08-23T23:18:10.940Z,61.55
2018-08-23T23:20:40.077Z,61.14
2018-08-23T23:23:09.206Z,61.61
2018-08-23T23:25:38.413Z,61.85
2018-08-23T23:28:07.585Z,62.08
2018-08-23T23:30:36.746Z,62.65
2018-08-23T23:33:05.883Z,62.87
2018-08-23T23:35:35.075Z,62.87
2018-08-23T23:38:04.260Z,62.94
2018-08-23T23:40:33.400Z,62.83
2018-08-23T23:43:02.535Z,62.90
2018-08-23T23:45:31.744Z,63.73
2018-08-23T23:48:00.892Z,63.99
2018-08-23T23:50:30.044Z,63.94
2018-08-23T23:52:59.151Z,64.11
2018-08-23T23:55:28.283Z,64.26
2018-08-23T23:57:57.449Z,64.20
